Time;durP1;ratioP1;P1;durP2;ratioP2;P2;SDS_P1;SDS_P2;PMS_P1;PMS_P2;Temp;Humidity;BMP_temperature;BMP_pressure;BME280_temperature;BME280_humidity;BME280_pressure;Samples;Min_cycle;Max_cycle;Signal;HPM_P1;HPM_P2
2022/04/27 00:00:28;;;;;;;8.43;5.33;;;;;;;;;;5008258;28;20221;-83
2022/04/27 00:02:53;;;;;;;10.47;5.50;;;;;;;;;;4990294;28;20221;-83
2022/04/27 00:05:19;;;;;;;10.97;5.90;;;;;;;;;;5000500;28;20229;-82
2022/04/27 00:07:44;;;;;;;9.30;5.93;;;;;;;;;;5000161;28;20257;-83
2022/04/27 00:10:10;;;;;;;11.03;6.30;;;;;;;;;;4998627;28;20709;-83
2022/04/27 00:12:36;;;;;;;7.67;6.07;;;;;;;;;;4998137;28;20245;-82
2022/04/27 00:15:03;;;;;;;8.80;5.67;;;;;;;;;;4979418;28;20240;-83
2022/04/27 00:17:28;;;;;;;7.83;6.03;;;;;;;;;;4994031;28;20316;-82
2022/04/27 00:19:56;;;;;;;7.90;6.30;;;;;;;;;;4977843;28;20661;-82
2022/04/27 00:22:22;;;;;;;9.33;6.67;;;;;;;;;;4993060;28;20229;-81
2022/04/27 00:24:48;;;;;;;9.57;6.70;;;;;;;;;;4993184;28;20287;-82
2022/04/27 00:27:13;;;;;;;14.73;6.63;;;;;;;;;;4979486;28;20217;-83
2022/04/27 00:29:39;;;;;;;9.97;6.80;;;;;;;;;;5008927;28;20288;-82
2022/04/27 00:32:04;;;;;;;13.47;6.97;;;;;;;;;;4991670;28;20646;-83
2022/04/27 00:34:30;;;;;;;11.47;6.83;;;;;;;;;;4975801;28;20230;-82
2022/04/27 00:36:58;;;;;;;8.23;6.77;;;;;;;;;;5012907;28;20307;-83
2022/04/27 00:39:25;;;;;;;11.87;6.73;;;;;;;;;;5010839;28;20291;-81
2022/04/27 00:41:59;;;;;;;11.47;7.53;;;;;;;;;;5015437;28;20220;-84
2022/04/27 00:44:32;;;;;;;9.73;7.57;;;;;;;;;;5000638;28;20224;-84
2022/04/27 00:46:57;;;;;;;10.60;7.53;;;;;;;;;;4999520;28;20212;-83
2022/04/27 00:49:23;;;;;;;10.27;7.90;;;;;;;;;;4967377;28;20212;-84
2022/04/27 00:51:49;;;;;;;8.80;7.53;;;;;;;;;;4984008;28;20228;-84
2022/04/27 00:54:18;;;;;;;13.47;8.20;;;;;;;;;;4970706;28;20217;-82
2022/04/27 00:56:44;;;;;;;9.57;7.93;;;;;;;;;;5000784;28;20228;-83
2022/04/27 00:59:09;;;;;;;12.83;8.70;;;;;;;;;;4983305;28;20690;-82
2022/04/27 01:01:35;;;;;;;11.53;8.37;;;;;;;;;;5015859;28;20313;-84
2022/04/27 01:04:01;;;;;;;12.07;8.60;;;;;;;;;;4999879;28;20338;-82
2022/04/27 01:06:27;;;;;;;11.27;8.53;;;;;;;;;;4998430;28;20236;-83
2022/04/27 01:08:53;;;;;;;10.10;8.20;;;;;;;;;;4983385;28;20236;-82
2022/04/27 01:11:18;;;;;;;11.27;8.60;;;;;;;;;;4996061;28;20221;-83
2022/04/27 01:13:52;;;;;;;11.97;8.43;;;;;;;;;;4980445;28;20236;-83
2022/04/27 01:16:19;;;;;;;12.93;8.27;;;;;;;;;;4980038;28;20232;-82
2022/04/27 01:18:45;;;;;;;14.77;8.57;;;;;;;;;;5012335;28;20359;-83
2022/04/27 01:21:11;;;;;;;10.53;8.70;;;;;;;;;;4979761;28;20249;-83
2022/04/27 01:23:44;;;;;;;14.17;9.13;;;;;;;;;;4980237;28;20231;-84
2022/04/27 01:26:10;;;;;;;11.50;8.60;;;;;;;;;;4995386;28;20236;-82
2022/04/27 01:28:37;;;;;;;13.03;8.63;;;;;;;;;;4980947;28;20222;-83
2022/04/27 01:31:04;;;;;;;10.67;8.97;;;;;;;;;;4995727;28;20230;-81
2022/04/27 01:33:34;;;;;;;11.87;8.33;;;;;;;;;;4980619;28;20225;-84
2022/04/27 01:36:02;;;;;;;12.87;9.33;;;;;;;;;;5001047;28;20334;-84
2022/04/27 01:38:35;;;;;;;10.00;9.00;;;;;;;;;;5001442;28;20213;-84
2022/04/27 01:41:02;;;;;;;13.17;9.07;;;;;;;;;;4985613;28;20701;-84
2022/04/27 01:43:29;;;;;;;10.20;8.83;;;;;;;;;;5001350;28;20259;-84
2022/04/27 01:45:56;;;;;;;11.33;9.10;;;;;;;;;;4997776;28;20713;-84
2022/04/27 01:48:21;;;;;;;14.13;9.33;;;;;;;;;;4997434;28;20237;-83
2022/04/27 01:50:47;;;;;;;13.50;9.33;;;;;;;;;;4981405;28;20226;-83
2022/04/27 01:55:59;;;;;;;13.00;9.13;;;;;;;;;;4984370;28;20247;-84
2022/04/27 01:58:26;;;;;;;11.90;8.87;;;;;;;;;;4983402;28;20222;-84
2022/04/27 02:00:53;;;;;;;15.23;9.77;;;;;;;;;;4982833;28;20292;-84
2022/04/27 02:03:18;;;;;;;13.20;9.53;;;;;;;;;;4999714;28;20298;-84
2022/04/27 02:05:45;;;;;;;11.33;8.87;;;;;;;;;;4966803;28;20244;-84
2022/04/27 02:08:11;;;;;;;12.93;9.43;;;;;;;;;;4998122;28;20221;-83
2022/04/27 02:10:37;;;;;;;13.20;9.83;;;;;;;;;;4983452;28;20322;-83
2022/04/27 02:13:05;;;;;;;15.30;10.00;;;;;;;;;;4982970;28;20226;-83
2022/04/27 02:15:32;;;;;;;11.03;9.90;;;;;;;;;;4983435;28;20304;-83
2022/04/27 02:18:23;;;;;;;13.50;9.77;;;;;;;;;;4997339;28;20233;-83
2022/04/27 02:20:49;;;;;;;12.03;9.80;;;;;;;;;;4983378;28;20225;-83
2022/04/27 02:23:19;;;;;;;14.97;10.77;;;;;;;;;;4982931;28;20226;-84
2022/04/27 02:25:47;;;;;;;14.10;10.30;;;;;;;;;;4983340;28;20232;-83
2022/04/27 02:28:12;;;;;;;10.67;9.57;;;;;;;;;;4983645;28;20225;-83
2022/04/27 02:30:39;;;;;;;14.83;10.53;;;;;;;;;;4994816;28;20248;-84
2022/04/27 02:33:10;;;;;;;18.07;10.97;;;;;;;;;;4984142;28;20225;-82
2022/04/27 02:35:36;;;;;;;13.30;10.23;;;;;;;;;;5016330;28;20232;-82
2022/04/27 02:38:02;;;;;;;15.77;10.70;;;;;;;;;;5001341;28;20221;-82
2022/04/27 02:40:29;;;;;;;14.10;10.57;;;;;;;;;;5000413;28;20225;-83
2022/04/27 02:43:00;;;;;;;12.47;10.47;;;;;;;;;;4998783;28;20287;-82
2022/04/27 02:45:25;;;;;;;12.93;10.83;;;;;;;;;;4997505;28;20237;-81
2022/04/27 02:47:51;;;;;;;14.27;10.70;;;;;;;;;;4982871;28;20288;-83
2022/04/27 02:53:06;;;;;;;15.87;10.77;;;;;;;;;;4983523;28;20226;-84
2022/04/27 02:55:36;;;;;;;15.73;9.97;;;;;;;;;;4968277;28;20229;-83
2022/04/27 02:58:02;;;;;;;13.27;10.60;;;;;;;;;;5014466;28;20292;-83
2022/04/27 03:00:30;;;;;;;13.30;10.10;;;;;;;;;;4999147;28;20705;-84
2022/04/27 03:02:57;;;;;;;16.07;10.10;;;;;;;;;;4982802;28;20249;-83
2022/04/27 03:05:25;;;;;;;12.67;10.33;;;;;;;;;;5003427;28;20213;-83
2022/04/27 03:07:52;;;;;;;15.97;10.17;;;;;;;;;;4981213;28;20226;-82
2022/04/27 03:10:20;;;;;;;15.90;10.60;;;;;;;;;;4981559;28;20232;-83
2022/04/27 03:15:17;;;;;;;12.80;10.00;;;;;;;;;;5040512;28;20243;-74
2022/04/27 03:17:42;;;;;;;11.03;9.80;;;;;;;;;;5046275;28;20236;-75
2022/04/27 03:20:13;;;;;;;13.20;10.63;;;;;;;;;;5041060;28;20307;-76
2022/04/27 03:22:40;;;;;;;13.83;10.03;;;;;;;;;;5009581;28;20598;-77
2022/04/27 03:25:07;;;;;;;10.87;9.77;;;;;;;;;;5012212;28;20283;-75
2022/04/27 03:27:35;;;;;;;14.73;10.20;;;;;;;;;;5021663;28;20261;-76
2022/04/27 03:30:06;;;;;;;15.10;10.00;;;;;;;;;;5009502;28;20221;-76
2022/04/27 03:32:34;;;;;;;14.57;10.07;;;;;;;;;;5022140;28;20255;-76
2022/04/27 03:35:02;;;;;;;11.20;10.10;;;;;;;;;;5026253;28;20252;-76
2022/04/27 03:37:30;;;;;;;12.77;10.13;;;;;;;;;;5012236;28;20223;-76
2022/04/27 03:39:56;;;;;;;14.30;9.93;;;;;;;;;;4996435;28;20223;-76
2022/04/27 03:42:22;;;;;;;13.67;9.63;;;;;;;;;;4995415;28;20232;-76
2022/04/27 03:44:56;;;;;;;12.87;9.90;;;;;;;;;;4998345;28;20220;-75
2022/04/27 03:47:24;;;;;;;14.40;9.93;;;;;;;;;;5003961;23;20228;-83
2022/04/27 03:49:54;;;;;;;13.73;9.77;;;;;;;;;;5045223;28;20215;-82
2022/04/27 03:52:20;;;;;;;15.00;9.70;;;;;;;;;;5042025;28;20288;-83
2022/04/27 03:54:47;;;;;;;13.17;9.27;;;;;;;;;;5041390;28;20696;-83
2022/04/27 03:57:14;;;;;;;11.83;9.87;;;;;;;;;;5058620;28;20275;-85
2022/04/27 03:59:39;;;;;;;11.53;8.97;;;;;;;;;;5058922;28;20222;-82
2022/04/27 04:02:06;;;;;;;9.87;8.80;;;;;;;;;;5042236;28;20278;-83
2022/04/27 04:04:32;;;;;;;11.83;9.33;;;;;;;;;;5043870;28;20219;-84
2022/04/27 04:06:58;;;;;;;13.97;9.23;;;;;;;;;;5043267;28;20628;-83
2022/04/27 04:09:25;;;;;;;11.87;9.60;;;;;;;;;;5042409;28;20225;-83
2022/04/27 04:11:51;;;;;;;11.10;8.80;;;;;;;;;;5042707;28;20230;-82
2022/04/27 04:14:16;;;;;;;14.73;8.90;;;;;;;;;;5058412;28;20607;-83
2022/04/27 04:16:53;;;;;;;13.67;9.10;;;;;;;;;;5075022;28;20253;-81
2022/04/27 04:19:32;;;;;;;11.30;9.20;;;;;;;;;;5076114;28;20645;-85
2022/04/27 04:22:14;;;;;;;13.17;9.30;;;;;;;;;;5044964;28;20223;-83
2022/04/27 04:30:33;;;;;;;13.90;8.97;;;;;;;;;;5041899;28;20223;-83
2022/04/27 04:33:17;;;;;;;11.67;8.60;;;;;;;;;;5040592;28;20237;-84
2022/04/27 04:35:49;;;;;;;12.47;9.03;;;;;;;;;;5023438;28;20238;-85
2022/04/27 04:38:14;;;;;;;10.23;8.67;;;;;;;;;;5038724;28;20269;-83
2022/04/27 04:40:40;;;;;;;12.20;9.43;;;;;;;;;;5062119;28;20223;-82
2022/04/27 04:43:06;;;;;;;13.90;9.13;;;;;;;;;;5048269;28;20262;-82
2022/04/27 04:45:32;;;;;;;12.83;9.33;;;;;;;;;;5040935;28;20221;-84
2022/04/27 04:48:15;;;;;;;11.27;9.47;;;;;;;;;;5041107;28;20696;-83
2022/04/27 04:51:02;;;;;;;11.90;9.40;;;;;;;;;;5041456;28;20246;-81
2022/04/27 04:53:46;;;;;;;12.20;9.20;;;;;;;;;;5055916;28;20314;-83
2022/04/27 04:56:30;;;;;;;10.37;8.60;;;;;;;;;;5041811;28;20223;-84
2022/04/27 04:59:14;;;;;;;11.40;7.87;;;;;;;;;;5055683;28;20235;-84
2022/04/27 05:02:03;;;;;;;12.40;8.57;;;;;;;;;;5042274;28;20245;-83
2022/04/27 05:04:48;;;;;;;13.00;8.57;;;;;;;;;;5018958;28;20227;-83
2022/04/27 05:07:33;;;;;;;18.53;8.10;;;;;;;;;;5047353;28;20245;-83
2022/04/27 05:10:17;;;;;;;11.20;7.37;;;;;;;;;;5027942;28;20226;-83
2022/04/27 05:12:49;;;;;;;10.47;7.23;;;;;;;;;;5039868;28;20215;-84
2022/04/27 05:15:37;;;;;;;8.77;7.10;;;;;;;;;;5044941;28;20598;-84
2022/04/27 05:18:20;;;;;;;11.10;6.60;;;;;;;;;;5026320;28;20215;-84
2022/04/27 05:21:06;;;;;;;7.70;6.40;;;;;;;;;;5041286;28;20219;-82
2022/04/27 05:24:05;;;;;;;10.93;6.90;;;;;;;;;;5042674;28;20643;-82
2022/04/27 05:26:38;;;;;;;11.20;6.37;;;;;;;;;;5035224;28;20890;-82
2022/04/27 05:35:34;;;;;;;8.73;5.37;;;;;;;;;;4961301;28;20289;-74
2022/04/27 05:38:17;;;;;;;8.33;5.80;;;;;;;;;;5051892;22;20226;-83
2022/04/27 05:41:04;;;;;;;9.00;5.37;;;;;;;;;;5066548;28;20276;-83
2022/04/27 05:43:51;;;;;;;8.10;5.07;;;;;;;;;;5056153;28;20239;-85
2022/04/27 05:46:36;;;;;;;7.13;4.47;;;;;;;;;;5059986;28;20711;-81
2022/04/27 05:49:12;;;;;;;8.33;4.87;;;;;;;;;;5047140;28;20226;-79
2022/04/27 05:52:30;;;;;;;9.87;4.23;;;;;;;;;;5046202;28;20222;-82
2022/04/27 05:55:22;;;;;;;8.43;4.20;;;;;;;;;;5071129;28;20256;-82
2022/04/27 05:58:05;;;;;;;7.87;3.73;;;;;;;;;;5054035;28;20223;-83
2022/04/27 06:00:49;;;;;;;7.00;4.03;;;;;;;;;;5063211;28;20229;-84
2022/04/27 06:03:31;;;;;;;8.63;4.07;;;;;;;;;;5046801;28;20223;-83
2022/04/27 06:06:02;;;;;;;9.70;4.20;;;;;;;;;;5028556;28;20219;-83
2022/04/27 06:08:28;;;;;;;7.07;3.60;;;;;;;;;;5054549;28;20214;-85
2022/04/27 06:10:59;;;;;;;6.90;3.43;;;;;;;;;;5032051;28;20310;-85
2022/04/27 06:13:24;;;;;;;8.27;3.60;;;;;;;;;;5060691;28;20230;-83
2022/04/27 06:16:10;;;;;;;7.97;3.63;;;;;;;;;;5023118;28;20237;-83
2022/04/27 06:18:56;;;;;;;8.33;3.33;;;;;;;;;;5050106;28;20222;-84
2022/04/27 06:21:22;;;;;;;7.57;3.80;;;;;;;;;;5049649;28;20286;-82
2022/04/27 06:23:47;;;;;;;5.53;3.60;;;;;;;;;;5052195;28;20296;-83
2022/04/27 06:26:14;;;;;;;5.13;3.47;;;;;;;;;;5009100;28;20219;-83
2022/04/27 06:28:42;;;;;;;4.50;3.30;;;;;;;;;;5051668;28;20277;-83
2022/04/27 06:31:13;;;;;;;5.27;3.00;;;;;;;;;;5027000;28;20636;-84
2022/04/27 06:33:39;;;;;;;5.97;3.30;;;;;;;;;;5040246;28;20223;-81
2022/04/27 06:36:26;;;;;;;9.47;3.47;;;;;;;;;;5044504;28;20652;-83
2022/04/27 06:38:52;;;;;;;9.40;3.80;;;;;;;;;;5058854;28;20234;-81
2022/04/27 06:41:27;;;;;;;5.53;3.20;;;;;;;;;;5029034;28;20235;-83
2022/04/27 06:44:11;;;;;;;8.03;3.43;;;;;;;;;;5054288;28;20229;-85
2022/04/27 06:46:56;;;;;;;6.40;3.00;;;;;;;;;;5063199;28;20221;-83
2022/04/27 06:49:40;;;;;;;7.30;2.97;;;;;;;;;;5062382;28;20234;-85
2022/04/27 06:52:24;;;;;;;5.67;2.70;;;;;;;;;;5063778;28;20298;-84
2022/04/27 06:55:10;;;;;;;4.07;2.80;;;;;;;;;;5045690;28;20491;-83
2022/04/27 06:57:57;;;;;;;8.53;3.40;;;;;;;;;;5053810;28;20210;-82
2022/04/27 07:00:26;;;;;;;5.90;3.07;;;;;;;;;;5077072;28;20224;-82
2022/04/27 07:02:54;;;;;;;5.57;3.00;;;;;;;;;;5061501;28;20229;-82
2022/04/27 07:05:20;;;;;;;5.33;3.20;;;;;;;;;;5046722;28;20226;-84
2022/04/27 07:07:46;;;;;;;7.17;2.87;;;;;;;;;;5044229;28;20253;-85
2022/04/27 07:10:12;;;;;;;5.40;2.90;;;;;;;;;;5055778;28;20739;-82
2022/04/27 07:12:38;;;;;;;5.53;3.00;;;;;;;;;;5040163;28;20262;-81
2022/04/27 07:15:04;;;;;;;5.80;3.20;;;;;;;;;;5062273;28;20252;-81
2022/04/27 07:21:16;;;;;;;8.33;3.30;;;;;;;;;;5072026;28;20257;-83
2022/04/27 07:23:42;;;;;;;6.43;3.10;;;;;;;;;;5049859;28;20310;-82
2022/04/27 07:26:07;;;;;;;4.93;3.00;;;;;;;;;;5027423;28;20676;-84
2022/04/27 07:28:35;;;;;;;5.63;3.40;;;;;;;;;;5024334;28;20300;-82
2022/04/27 07:31:03;;;;;;;4.77;2.97;;;;;;;;;;5077899;28;20226;-84
2022/04/27 07:33:29;;;;;;;6.07;2.73;;;;;;;;;;5057016;28;20255;-84
2022/04/27 07:35:56;;;;;;;7.87;3.20;;;;;;;;;;5041868;28;20239;-83
2022/04/27 07:38:22;;;;;;;9.50;2.97;;;;;;;;;;5057785;28;20283;-81
2022/04/27 07:40:50;;;;;;;6.37;2.90;;;;;;;;;;5042033;28;20303;-82
2022/04/27 07:43:18;;;;;;;8.67;3.33;;;;;;;;;;5057739;28;20228;-82
2022/04/27 07:45:44;;;;;;;5.73;3.10;;;;;;;;;;5036511;28;20239;-85
2022/04/27 07:48:12;;;;;;;8.27;3.33;;;;;;;;;;5046055;28;20239;-86
2022/04/27 07:50:38;;;;;;;7.33;3.17;;;;;;;;;;5045476;28;20257;-85
2022/04/27 07:53:03;;;;;;;9.07;3.00;;;;;;;;;;5039130;28;20295;-82
2022/04/27 07:55:32;;;;;;;7.40;3.13;;;;;;;;;;5077463;28;20223;-85
2022/04/27 07:57:59;;;;;;;6.80;3.00;;;;;;;;;;5041288;28;20222;-84
2022/04/27 08:00:29;;;;;;;6.87;3.20;;;;;;;;;;5048486;28;20222;-82
2022/04/27 08:02:55;;;;;;;5.93;3.17;;;;;;;;;;5066868;28;20237;-84
2022/04/27 08:05:20;;;;;;;7.10;3.20;;;;;;;;;;5030519;28;20302;-84
2022/04/27 08:07:46;;;;;;;7.83;3.33;;;;;;;;;;5076708;28;20233;-84
2022/04/27 08:10:14;;;;;;;8.67;3.53;;;;;;;;;;5031920;28;20250;-83
2022/04/27 08:12:40;;;;;;;7.70;3.27;;;;;;;;;;5047634;28;20237;-85
2022/04/27 08:15:07;;;;;;;9.23;3.50;;;;;;;;;;5037581;28;20817;-83
2022/04/27 08:17:33;;;;;;;7.40;3.20;;;;;;;;;;5046252;28;20214;-83
2022/04/27 08:22:43;;;;;;;5.07;3.10;;;;;;;;;;5059307;28;20684;-85
2022/04/27 08:25:08;;;;;;;8.23;3.47;;;;;;;;;;5025898;28;20219;-83
2022/04/27 08:31:21;;;;;;;9.37;3.70;;;;;;;;;;5074018;28;20247;-82
2022/04/27 08:33:47;;;;;;;6.70;3.33;;;;;;;;;;5043660;28;20242;-83
2022/04/27 08:36:15;;;;;;;8.67;4.00;;;;;;;;;;5037715;28;20235;-83
2022/04/27 08:38:40;;;;;;;8.23;4.00;;;;;;;;;;5029180;28;20222;-81
2022/04/27 08:41:06;;;;;;;7.63;3.57;;;;;;;;;;5042161;28;20257;-85
2022/04/27 08:43:34;;;;;;;7.27;3.90;;;;;;;;;;5026015;28;20230;-84
2022/04/27 08:46:03;;;;;;;6.87;3.60;;;;;;;;;;5022098;28;20306;-84
2022/04/27 08:48:29;;;;;;;9.77;3.90;;;;;;;;;;5043871;28;20231;-82
2022/04/27 08:50:57;;;;;;;7.73;3.87;;;;;;;;;;5026986;28;20305;-82
2022/04/27 08:53:24;;;;;;;6.20;3.60;;;;;;;;;;5036508;28;20223;-83
2022/04/27 08:55:52;;;;;;;5.30;3.57;;;;;;;;;;5021696;28;20239;-83
2022/04/27 08:58:21;;;;;;;7.70;4.00;;;;;;;;;;5006747;28;20887;-82
2022/04/27 09:00:47;;;;;;;8.93;4.13;;;;;;;;;;5022823;28;20224;-82
2022/04/27 09:03:28;;;;;;;5.20;3.93;;;;;;;;;;5040112;28;20223;-86
2022/04/27 09:09:41;;;;;;;6.43;4.10;;;;;;;;;;5072285;28;20233;-83
2022/04/27 09:12:16;;;;;;;5.97;3.60;;;;;;;;;;5052394;28;20317;-82
2022/04/27 09:14:46;;;;;;;7.97;4.67;;;;;;;;;;5049180;28;20230;-84
2022/04/27 09:23:26;;;;;;;7.13;3.70;;;;;;;;;;5072152;28;20226;-81
2022/04/27 09:25:56;;;;;;;6.87;3.90;;;;;;;;;;5045232;28;20276;-83
2022/04/27 09:29:03;;;;;;;8.10;4.67;;;;;;;;;;5081961;28;20258;-84
2022/04/27 09:31:35;;;;;;;6.80;4.17;;;;;;;;;;5078309;28;20719;-81
2022/04/27 09:34:27;;;;;;;4.00;3.60;;;;;;;;;;5041463;28;20375;-84
2022/04/27 09:37:02;;;;;;;6.50;3.93;;;;;;;;;;5044217;28;20223;-81
2022/04/27 09:39:28;;;;;;;7.70;3.93;;;;;;;;;;5061577;28;20219;-85
2022/04/27 09:42:46;;;;;;;8.40;4.43;;;;;;;;;;5018058;28;20257;-84
2022/04/27 09:45:15;;;;;;;5.70;4.50;;;;;;;;;;5035405;28;20231;-83
2022/04/27 09:47:48;;;;;;;7.67;4.40;;;;;;;;;;5041203;28;20332;-82
2022/04/27 09:50:16;;;;;;;6.33;4.60;;;;;;;;;;5041212;28;20322;-81
2022/04/27 09:52:41;;;;;;;7.73;4.60;;;;;;;;;;5041938;28;20715;-83
2022/04/27 09:55:07;;;;;;;7.10;4.13;;;;;;;;;;5048086;28;20226;-85
2022/04/27 09:57:38;;;;;;;6.30;4.00;;;;;;;;;;5067551;28;20227;-85
2022/04/27 10:00:05;;;;;;;6.70;4.22;;;;;;;;;;5014431;28;20250;-85
2022/04/27 10:02:40;;;;;;;4.90;3.90;;;;;;;;;;5042023;28;20254;-85
2022/04/27 10:05:06;;;;;;;6.95;3.75;;;;;;;;;;5036541;28;20230;-85
2022/04/27 10:07:32;;;;;;;5.50;4.40;;;;;;;;;;5048103;28;20219;-81
2022/04/27 10:10:00;;;;;;;5.20;3.88;;;;;;;;;;5017761;28;20290;-86
2022/04/27 10:12:30;;;;;;;6.47;3.72;;;;;;;;;;5046637;28;20214;-84
2022/04/27 10:14:58;;;;;;;5.50;3.88;;;;;;;;;;5073451;28;20242;-85
2022/04/27 10:17:24;;;;;;;6.53;3.85;;;;;;;;;;5030975;28;20230;-85
2022/04/27 10:19:50;;;;;;;5.55;4.00;;;;;;;;;;5031919;28;20223;-83
2022/04/27 10:22:44;;;;;;;6.57;3.97;;;;;;;;;;5044752;28;20688;-83
2022/04/27 10:25:10;;;;;;;4.38;3.45;;;;;;;;;;5049719;28;20227;-82
2022/04/27 10:27:37;;;;;;;6.30;4.07;;;;;;;;;;5037594;28;20552;-81
2022/04/27 10:30:04;;;;;;;6.32;3.53;;;;;;;;;;5048150;28;20223;-83
2022/04/27 10:32:53;;;;;;;4.82;4.03;;;;;;;;;;5057459;28;20211;-83
2022/04/27 10:39:15;;;;;;;6.00;3.80;;;;;;;;;;5086160;28;20220;-84
2022/04/27 10:41:48;;;;;;;6.03;3.80;;;;;;;;;;5064642;28;20223;-82
2022/04/27 10:44:48;;;;;;;5.22;3.67;;;;;;;;;;5052691;28;20623;-84
2022/04/27 10:47:19;;;;;;;6.40;4.30;;;;;;;;;;5065507;28;20245;-85
2022/04/27 10:49:48;;;;;;;5.22;3.88;;;;;;;;;;5048938;28;20227;-85
2022/04/27 10:52:18;;;;;;;7.13;3.70;;;;;;;;;;5035104;28;20215;-83
2022/04/27 10:54:43;;;;;;;4.43;3.72;;;;;;;;;;5045182;28;20219;-85
2022/04/27 10:57:15;;;;;;;5.05;3.60;;;;;;;;;;5044012;28;20247;-86
2022/04/27 11:00:02;;;;;;;4.53;3.17;;;;;;;;;;5059813;28;20223;-85
2022/04/27 11:02:41;;;;;;;6.63;4.05;;;;;;;;;;5040175;28;20228;-85
2022/04/27 11:05:12;;;;;;;5.70;3.40;;;;;;;;;;5059378;28;20296;-85
2022/04/27 11:08:01;;;;;;;6.68;3.63;;;;;;;;;;5067409;28;20228;-84
2022/04/27 11:10:27;;;;;;;5.03;3.50;;;;;;;;;;5061148;28;20687;-83
2022/04/27 11:12:53;;;;;;;5.13;3.65;;;;;;;;;;5046190;28;20310;-83
2022/04/27 11:15:27;;;;;;;6.18;4.28;;;;;;;;;;5035292;28;20755;-85
2022/04/27 11:17:56;;;;;;;7.95;4.30;;;;;;;;;;5033551;28;20747;-82
2022/04/27 11:20:23;;;;;;;8.13;4.07;;;;;;;;;;5028064;28;22369;-84
2022/04/27 11:28:05;;;;;;;6.97;4.20;;;;;;;;;;5028747;28;20225;-83
2022/04/27 11:30:31;;;;;;;6.25;4.25;;;;;;;;;;5004365;28;20221;-85
2022/04/27 11:32:56;;;;;;;4.45;4.00;;;;;;;;;;5030859;22;20235;-77
2022/04/27 11:35:23;;;;;;;4.82;3.60;;;;;;;;;;5001464;28;20232;-77
2022/04/27 11:37:53;;;;;;;5.35;4.00;;;;;;;;;;5007824;28;20220;-78
2022/04/27 11:40:20;;;;;;;5.05;3.97;;;;;;;;;;5035546;28;20219;-77
2022/04/27 11:42:49;;;;;;;6.32;4.05;;;;;;;;;;5021684;28;20278;-76
2022/04/27 11:45:18;;;;;;;5.20;3.90;;;;;;;;;;5035874;28;20226;-76
2022/04/27 11:47:47;;;;;;;4.45;3.70;;;;;;;;;;5032964;28;20220;-77
2022/04/27 11:50:17;;;;;;;5.13;3.35;;;;;;;;;;5035483;28;20244;-76
2022/04/27 11:55:29;;;;;;;5.47;3.30;;;;;;;;;;5007895;28;20245;-85
2022/04/27 12:05:12;;;;;;;5.45;3.22;;;;;;;;;;5008857;28;20689;-83
2022/04/27 12:07:40;;;;;;;5.53;3.63;;;;;;;;;;4983003;28;20217;-84
2022/04/27 12:10:07;;;;;;;4.80;3.42;;;;;;;;;;5011695;28;20248;-83
2022/04/27 12:12:34;;;;;;;5.30;3.90;;;;;;;;;;5011913;28;20216;-81
2022/04/27 12:15:07;;;;;;;5.22;3.47;;;;;;;;;;5001516;28;20225;-81
2022/04/27 12:17:49;;;;;;;4.82;3.50;;;;;;;;;;5017121;28;20254;-84
2022/04/27 12:20:37;;;;;;;6.50;3.30;;;;;;;;;;5012503;28;20277;-85
2022/04/27 12:23:23;;;;;;;3.45;3.03;;;;;;;;;;4999038;28;20236;-85
2022/04/27 12:26:00;;;;;;;4.80;3.88;;;;;;;;;;5032223;28;20225;-80
2022/04/27 12:28:33;;;;;;;8.73;6.88;;;;;;;;;;5006090;28;20232;-81
2022/04/27 12:31:00;;;;;;;6.75;5.78;;;;;;;;;;4967395;28;20225;-81
2022/04/27 12:33:38;;;;;;;7.38;4.32;;;;;;;;;;5009402;28;20213;-83
2022/04/27 12:39:20;;;;;;;7.80;5.20;;;;;;;;;;5023701;28;20582;-80
2022/04/27 12:41:47;;;;;;;4.57;3.10;;;;;;;;;;5012068;28;20227;-81
2022/04/27 12:44:24;;;;;;;4.68;3.47;;;;;;;;;;5011708;28;20284;-82
2022/04/27 12:47:03;;;;;;;4.85;3.00;;;;;;;;;;4999100;28;20309;-83
2022/04/27 12:49:39;;;;;;;5.50;3.22;;;;;;;;;;5000410;28;20228;-80
2022/04/27 12:52:23;;;;;;;6.28;3.10;;;;;;;;;;4986224;28;20235;-83
2022/04/27 12:54:50;;;;;;;5.80;3.35;;;;;;;;;;5021412;28;20325;-83
2022/04/27 12:57:17;;;;;;;8.98;3.40;;;;;;;;;;4990572;28;20216;-81
2022/04/27 13:00:35;;;;;;;5.65;2.88;;;;;;;;;;4999494;28;20232;-83
2022/04/27 13:03:00;;;;;;;3.83;2.97;;;;;;;;;;5025635;28;20213;-84
2022/04/27 13:05:26;;;;;;;4.93;3.20;;;;;;;;;;4980889;28;20264;-83
2022/04/27 13:07:54;;;;;;;4.65;2.90;;;;;;;;;;4997704;28;20237;-81
2022/04/27 13:13:05;;;;;;;4.25;3.10;;;;;;;;;;4998324;28;20213;-85
2022/04/27 13:15:31;;;;;;;3.70;2.85;;;;;;;;;;5009093;28;20229;-83
2022/04/27 13:17:56;;;;;;;4.15;2.88;;;;;;;;;;5008029;28;20248;-82
2022/04/27 13:20:22;;;;;;;5.47;3.15;;;;;;;;;;4995393;28;20224;-82
2022/04/27 13:22:47;;;;;;;3.95;3.10;;;;;;;;;;5005232;28;20236;-82
2022/04/27 13:25:15;;;;;;;4.78;3.08;;;;;;;;;;4998126;28;20212;-84
2022/04/27 13:27:41;;;;;;;5.07;3.20;;;;;;;;;;5007314;28;20276;-84
2022/04/27 13:30:10;;;;;;;5.32;3.60;;;;;;;;;;4998357;28;20244;-79
2022/04/27 13:35:21;;;;;;;3.88;2.75;;;;;;;;;;5049433;23;20226;-87
2022/04/27 13:37:51;;;;;;;4.43;3.13;;;;;;;;;;5055552;28;20454;-90
2022/04/27 13:40:16;;;;;;;3.78;3.10;;;;;;;;;;5049846;28;20265;-89
2022/04/27 13:42:45;;;;;;;5.47;3.35;;;;;;;;;;5036227;28;20227;-91
2022/04/27 13:45:16;;;;;;;5.13;3.00;;;;;;;;;;5042617;28;20227;-91
2022/04/27 13:47:45;;;;;;;4.03;3.00;;;;;;;;;;4989995;28;20246;-92
2022/04/27 13:50:19;;;;;;;4.72;3.00;;;;;;;;;;5024028;28;20234;-91
2022/04/27 13:52:50;;;;;;;3.55;3.22;;;;;;;;;;5033775;28;20228;-91
2022/04/27 13:55:25;;;;;;;4.28;3.00;;;;;;;;;;5011479;28;20220;-90
2022/04/27 13:57:52;;;;;;;4.60;3.33;;;;;;;;;;5031371;28;20266;-89
2022/04/27 14:00:22;;;;;;;5.80;3.20;;;;;;;;;;5073029;28;20232;-89
2022/04/27 14:02:49;;;;;;;4.32;3.25;;;;;;;;;;5037091;28;20292;-89
2022/04/27 14:05:15;;;;;;;6.03;3.25;;;;;;;;;;5041355;28;20215;-90
2022/04/27 14:07:49;;;;;;;4.38;3.50;;;;;;;;;;5040148;28;20224;-92
2022/04/27 14:10:20;;;;;;;3.97;3.53;;;;;;;;;;5049247;28;20208;-90
2022/04/27 14:18:31;;;;;;;4.20;3.83;;;;;;;;;;5044009;28;20234;-87
2022/04/27 14:20:57;;;;;;;6.25;3.70;;;;;;;;;;5033437;28;20231;-88
2022/04/27 14:23:22;;;;;;;7.45;3.97;;;;;;;;;;5024421;28;20227;-90
2022/04/27 14:25:48;;;;;;;5.28;3.58;;;;;;;;;;5035203;28;20285;-90
2022/04/27 14:28:19;;;;;;;6.93;3.25;;;;;;;;;;5052322;28;20680;-91
2022/04/27 14:30:45;;;;;;;4.10;3.35;;;;;;;;;;5038824;28;20246;-90
2022/04/27 14:33:19;;;;;;;4.40;3.65;;;;;;;;;;5040165;28;20219;-90
2022/04/27 14:35:45;;;;;;;4.20;3.58;;;;;;;;;;5043982;28;20235;-87
2022/04/27 14:38:12;;;;;;;3.80;3.40;;;;;;;;;;5054076;28;20215;-90
2022/04/27 14:40:37;;;;;;;5.53;3.58;;;;;;;;;;5042553;28;20215;-89
2022/04/27 14:43:04;;;;;;;5.57;3.92;;;;;;;;;;5019164;28;20368;-89
2022/04/27 14:45:36;;;;;;;6.00;3.88;;;;;;;;;;5026678;28;20216;-88
2022/04/27 14:48:07;;;;;;;5.53;4.47;;;;;;;;;;5042010;23;20232;-76
2022/04/27 14:50:34;;;;;;;5.75;4.13;;;;;;;;;;5029698;28;20219;-75
2022/04/27 14:53:02;;;;;;;6.45;4.25;;;;;;;;;;5023055;28;20231;-77
2022/04/27 14:55:29;;;;;;;4.45;4.05;;;;;;;;;;5075759;23;20224;-82
2022/04/27 14:58:00;;;;;;;5.72;4.07;;;;;;;;;;5023725;28;20223;-85
2022/04/27 15:00:26;;;;;;;5.07;3.72;;;;;;;;;;5050955;28;20219;-86
2022/04/27 15:02:53;;;;;;;4.47;3.70;;;;;;;;;;5050458;28;20590;-83
2022/04/27 15:05:24;;;;;;;4.50;3.83;;;;;;;;;;5024974;28;20219;-84
2022/04/27 15:07:56;;;;;;;5.07;3.95;;;;;;;;;;5044775;28;20427;-86
2022/04/27 15:10:21;;;;;;;4.43;3.42;;;;;;;;;;5015775;28;20273;-81
2022/04/27 15:12:49;;;;;;;6.18;4.00;;;;;;;;;;5032214;28;20247;-82
2022/04/27 15:15:15;;;;;;;4.28;3.67;;;;;;;;;;5036204;28;20224;-83
2022/04/27 15:17:43;;;;;;;4.57;3.80;;;;;;;;;;4997490;28;20244;-79
2022/04/27 15:22:57;;;;;;;4.65;3.88;;;;;;;;;;5032242;28;20228;-83
2022/04/27 15:25:23;;;;;;;5.20;3.45;;;;;;;;;;5049094;28;20238;-83
2022/04/27 15:27:48;;;;;;;6.43;3.80;;;;;;;;;;5019577;28;20252;-85
2022/04/27 15:30:28;;;;;;;4.28;3.63;;;;;;;;;;5012220;28;20283;-84
2022/04/27 15:32:54;;;;;;;4.72;3.67;;;;;;;;;;5008669;28;20244;-81
2022/04/27 15:35:23;;;;;;;6.63;3.83;;;;;;;;;;5026736;28;20216;-81
2022/04/27 15:37:53;;;;;;;6.30;3.90;;;;;;;;;;5012789;28;20438;-83
2022/04/27 15:40:21;;;;;;;6.50;3.60;;;;;;;;;;5027684;28;20535;-85
2022/04/27 15:42:47;;;;;;;4.57;3.40;;;;;;;;;;5009085;28;20228;-86
2022/04/27 15:45:17;;;;;;;5.75;3.75;;;;;;;;;;5024592;28;20212;-84
2022/04/27 15:47:43;;;;;;;4.50;3.50;;;;;;;;;;4999891;28;20219;-82
2022/04/27 15:50:11;;;;;;;4.95;3.22;;;;;;;;;;5002492;28;20220;-86
2022/04/27 15:52:37;;;;;;;4.88;3.90;;;;;;;;;;5009339;28;20262;-84
2022/04/27 15:55:04;;;;;;;5.57;4.03;;;;;;;;;;4994979;28;20299;-84
2022/04/27 15:57:32;;;;;;;3.97;3.53;;;;;;;;;;5014538;28;20220;-84
2022/04/27 15:59:58;;;;;;;6.15;3.92;;;;;;;;;;5003028;28;20304;-84
2022/04/27 16:02:26;;;;;;;4.97;3.67;;;;;;;;;;5020957;28;20204;-83
2022/04/27 16:04:51;;;;;;;6.10;3.92;;;;;;;;;;5008287;28;20307;-85
2022/04/27 16:07:20;;;;;;;4.13;3.75;;;;;;;;;;4997491;28;20293;-82
2022/04/27 16:09:46;;;;;;;4.63;4.10;;;;;;;;;;5022029;28;20224;-88
2022/04/27 16:12:13;;;;;;;5.63;3.90;;;;;;;;;;4987497;28;20247;-86
2022/04/27 16:14:48;;;;;;;4.45;3.55;;;;;;;;;;5001119;28;20361;-85